Time;durP1;ratioP1;P1;durP2;ratioP2;P2;SDS_P1;SDS_P2;PMS_P1;PMS_P2;Temp;Humidity;BMP_temperature;BMP_pressure;BME280_temperature;BME280_humidity;BME280_pressure;Samples;Min_cycle;Max_cycle;Signal;HPM_P1;HPM_P2
2022/06/21 00:01:52;;;;;;;6.03;4.57;;;-40.00;99.90;;;;;;5139504;27;20623;-74
2022/06/21 00:04:18;;;;;;;8.47;4.10;;;-40.00;99.90;;;;;;5139672;27;20246;-74
2022/06/21 00:06:44;;;;;;;5.37;3.90;;;-40.00;99.90;;;;;;5138535;27;20173;-74
2022/06/21 00:09:13;;;;;;;9.53;4.30;;;-40.00;99.90;;;;;;5139269;27;20599;-73
2022/06/21 00:11:39;;;;;;;9.77;4.33;;;-40.00;99.90;;;;;;5139499;27;20595;-73
2022/06/21 00:14:04;;;;;;;6.63;4.07;;;-40.00;99.90;;;;;;5138863;27;20166;-74
2022/06/21 00:16:31;;;;;;;8.87;4.47;;;-40.00;99.90;;;;;;5139301;27;20171;-74
2022/06/21 00:18:57;;;;;;;5.10;4.23;;;-40.00;99.90;;;;;;5139174;27;20176;-75
2022/06/21 00:21:32;;;;;;;8.23;4.37;;;-40.00;99.90;;;;;;5139178;27;20181;-72
2022/06/21 00:23:58;;;;;;;5.17;3.80;;;-40.00;99.90;;;;;;5139131;27;20503;-72
2022/06/21 00:26:26;;;;;;;7.60;4.13;;;-40.00;99.90;;;;;;5139076;27;20656;-76
2022/06/21 00:28:52;;;;;;;5.37;4.60;;;-40.00;99.90;;;;;;5138743;27;20165;-72
2022/06/21 00:31:20;;;;;;;13.47;5.27;;;-40.00;99.90;;;;;;5139086;27;20206;-75
2022/06/21 00:33:46;;;;;;;7.70;4.17;;;-40.00;99.90;;;;;;5138544;27;20154;-73
2022/06/21 00:36:28;;;;;;;5.10;4.47;;;-40.00;99.90;;;;;;5139105;27;20559;-72
2022/06/21 00:38:55;;;;;;;7.57;4.93;;;-40.00;99.90;;;;;;5138660;27;20458;-74
2022/06/21 00:41:43;;;;;;;5.73;4.40;;;-40.00;99.90;;;;;;5138680;27;20264;-74
2022/06/21 00:44:17;;;;;;;9.23;5.03;;;-40.00;99.90;;;;;;5138351;27;20172;-74
2022/06/21 00:46:47;;;;;;;12.97;4.50;;;-40.00;99.90;;;;;;5138732;27;20161;-73
2022/06/21 00:49:27;;;;;;;6.27;5.40;;;-40.00;99.90;;;;;;5138321;27;20165;-71
2022/06/21 00:51:58;;;;;;;15.53;5.87;;;-40.00;99.90;;;;;;5137498;27;20584;-71
2022/06/21 00:54:38;;;;;;;6.60;4.27;;;-40.00;99.90;;;;;;5138373;27;20643;-72
2022/06/21 00:57:12;;;;;;;7.53;5.20;;;-40.00;99.90;;;;;;5138424;27;20210;-73
2022/06/21 00:59:38;;;;;;;5.63;5.13;;;-40.00;99.90;;;;;;5138329;27;20173;-72
2022/06/21 01:02:12;;;;;;;14.30;5.93;;;-40.00;99.90;;;;;;5138141;27;20745;-74
2022/06/21 01:04:42;;;;;;;11.47;4.87;;;-40.00;99.90;;;;;;5138231;27;20237;-73
2022/06/21 01:07:11;;;;;;;7.73;5.27;;;-40.00;99.90;;;;;;5138552;27;20482;-73
2022/06/21 01:09:49;;;;;;;8.60;5.67;;;-40.00;99.90;;;;;;5137138;27;20639;-74
2022/06/21 01:12:20;;;;;;;6.53;5.40;;;-40.00;99.90;;;;;;5137905;27;20165;-73
2022/06/21 01:15:07;;;;;;;11.50;5.33;;;-40.00;99.90;;;;;;5138090;27;20253;-73
2022/06/21 01:17:34;;;;;;;5.83;5.17;;;-40.00;99.90;;;;;;5138002;27;20176;-74
2022/06/21 01:20:07;;;;;;;8.40;5.50;;;-40.00;99.90;;;;;;5137989;27;20188;-73
2022/06/21 01:22:35;;;;;;;6.13;5.20;;;-40.00;99.90;;;;;;5137969;27;20709;-74
2022/06/21 01:25:33;;;;;;;11.87;6.43;;;-40.00;99.90;;;;;;5137779;27;20185;-74
2022/06/21 01:28:00;;;;;;;5.53;4.80;;;-40.00;99.90;;;;;;5137490;27;20292;-71
2022/06/21 01:30:28;;;;;;;5.40;4.90;;;-40.00;99.90;;;;;;5137745;27;20169;-74
2022/06/21 01:32:58;;;;;;;11.60;5.23;;;-40.00;99.90;;;;;;5137763;27;20261;-73
2022/06/21 01:35:41;;;;;;;6.20;5.40;;;-40.00;99.90;;;;;;5137481;27;20588;-74
2022/06/21 01:38:12;;;;;;;11.00;6.20;;;-40.00;99.90;;;;;;5137385;27;20181;-74
2022/06/21 01:40:42;;;;;;;7.37;5.30;;;-40.00;99.90;;;;;;5137653;27;20165;-75
2022/06/21 01:43:13;;;;;;;14.37;6.87;;;-40.00;99.90;;;;;;5137470;27;20227;-70
2022/06/21 01:45:46;;;;;;;16.70;5.53;;;-40.00;99.90;;;;;;5136738;27;20249;-70
2022/06/21 01:48:19;;;;;;;7.93;5.77;;;-40.00;99.90;;;;;;5137436;27;20212;-69
2022/06/21 01:50:48;;;;;;;13.53;5.90;;;-40.00;99.90;;;;;;5137389;27;20164;-72
2022/06/21 01:53:15;;;;;;;7.10;5.77;;;-40.00;99.90;;;;;;5137222;27;20196;-70
2022/06/21 01:55:47;;;;;;;14.60;6.77;;;-40.00;99.90;;;;;;5137111;27;20440;-71
2022/06/21 01:58:19;;;;;;;12.43;6.53;;;-40.00;99.90;;;;;;5136147;27;20226;-75
2022/06/21 02:00:52;;;;;;;7.20;6.43;;;-40.00;99.90;;;;;;5137169;27;20157;-74
2022/06/21 02:03:21;;;;;;;10.57;6.47;;;-40.00;99.90;;;;;;5136959;27;20656;-75
2022/06/21 02:05:53;;;;;;;13.20;7.70;;;-40.00;99.90;;;;;;5136799;27;20252;-74
2022/06/21 02:08:24;;;;;;;7.47;5.70;;;-40.00;99.90;;;;;;5136947;27;20185;-73
2022/06/21 02:10:58;;;;;;;13.13;6.47;;;-40.00;99.90;;;;;;5136678;27;20165;-74
2022/06/21 02:13:39;;;;;;;8.53;7.10;;;-40.00;99.90;;;;;;5136956;27;20176;-74
2022/06/21 02:16:26;;;;;;;8.53;5.87;;;-40.00;99.90;;;;;;5137115;27;20479;-75
2022/06/21 02:18:57;;;;;;;10.80;7.47;;;-40.00;99.90;;;;;;5136994;27;20169;-74
2022/06/21 02:21:33;;;;;;;10.50;7.00;;;-40.00;99.90;;;;;;5136842;27;20173;-74
2022/06/21 02:23:58;;;;;;;10.67;6.90;;;-40.00;99.90;;;;;;5136952;27;20164;-72
2022/06/21 02:26:28;;;;;;;9.80;7.67;;;-40.00;99.90;;;;;;5136546;27;20162;-73
2022/06/21 02:28:55;;;;;;;10.13;5.73;;;-40.00;99.90;;;;;;5136923;27;20165;-73
2022/06/21 02:31:22;;;;;;;7.53;6.30;;;-40.00;99.90;;;;;;5136683;27;20250;-73
2022/06/21 02:33:50;;;;;;;9.10;6.30;;;-40.00;99.90;;;;;;5136880;27;20161;-72
2022/06/21 02:36:21;;;;;;;6.77;6.20;;;-40.00;99.90;;;;;;5136590;28;20185;-74
2022/06/21 02:38:56;;;;;;;8.17;6.67;;;-40.00;99.90;;;;;;5136556;27;20302;-73
2022/06/21 02:41:29;;;;;;;11.73;6.80;;;-40.00;99.90;;;;;;5136543;27;20256;-73
2022/06/21 02:44:16;;;;;;;11.40;6.10;;;-40.00;99.90;;;;;;5136783;28;20168;-74
2022/06/21 02:46:48;;;;;;;13.67;7.07;;;-40.00;99.90;;;;;;5136601;28;20183;-73
2022/06/21 02:49:34;;;;;;;10.13;5.87;;;-40.00;99.90;;;;;;5136657;27;20158;-73
2022/06/21 02:52:40;;;;;;;6.60;5.63;;;-40.00;99.90;;;;;;5136608;28;20181;-73
2022/06/21 02:55:21;;;;;;;10.20;6.97;;;-40.00;99.90;;;;;;5135950;28;20184;-73
2022/06/21 02:57:56;;;;;;;8.37;7.10;;;-40.00;99.90;;;;;;5138860;27;20173;-71
2022/06/21 03:00:23;;;;;;;6.50;5.87;;;-40.00;99.90;;;;;;5140849;27;20179;-73
2022/06/21 03:02:49;;;;;;;10.87;8.43;;;-40.00;99.90;;;;;;5140639;27;20195;-74
2022/06/21 03:05:19;;;;;;;10.87;7.47;;;-40.00;99.90;;;;;;5140820;27;20166;-74
2022/06/21 03:07:53;;;;;;;8.10;7.30;;;-40.00;99.90;;;;;;5140373;27;20169;-72
2022/06/21 03:10:29;;;;;;;12.20;7.57;;;-40.00;99.90;;;;;;5140608;27;20162;-72
2022/06/21 03:13:03;;;;;;;8.43;7.63;;;-40.00;99.90;;;;;;5140517;27;20179;-71
2022/06/21 03:15:29;;;;;;;8.53;7.63;;;-40.00;99.90;;;;;;5140420;27;20169;-69
2022/06/21 03:18:01;;;;;;;14.63;8.37;;;-40.00;99.90;;;;;;5140388;27;20193;-66
2022/06/21 03:20:27;;;;;;;9.67;7.93;;;-40.00;99.90;;;;;;5140423;27;20254;-70
2022/06/21 03:22:55;;;;;;;11.90;8.53;;;-40.00;99.90;;;;;;5139957;27;20280;-74
2022/06/21 03:25:26;;;;;;;8.53;7.53;;;-40.00;99.90;;;;;;5140285;27;20158;-67
2022/06/21 03:27:57;;;;;;;11.53;7.97;;;-40.00;99.90;;;;;;5140171;27;20216;-64
2022/06/21 03:30:32;;;;;;;10.83;7.47;;;-40.00;99.90;;;;;;5140335;27;20245;-64
2022/06/21 03:33:00;;;;;;;11.40;7.80;;;-40.00;99.90;;;;;;5140096;27;20157;-66
2022/06/21 03:35:29;;;;;;;9.13;7.30;;;-40.00;99.90;;;;;;5140107;27;20230;-69
2022/06/21 03:37:54;;;;;;;10.40;6.93;;;-40.00;99.90;;;;;;5139613;27;20193;-64
2022/06/21 03:43:23;;;;;;;9.67;7.70;;;-40.00;99.90;;;;;;5139830;27;20200;-73
2022/06/21 03:45:53;;;;;;;8.10;7.30;;;-40.00;99.90;;;;;;5139944;27;20158;-66
2022/06/21 03:48:23;;;;;;;15.13;8.97;;;-40.00;99.90;;;;;;5139587;27;20197;-67
2022/06/21 03:50:55;;;;;;;8.83;6.97;;;-40.00;99.90;;;;;;5139849;27;20206;-63
2022/06/21 03:53:30;;;;;;;8.50;7.17;;;-40.00;99.90;;;;;;5139203;27;20189;-71
2022/06/21 03:56:18;;;;;;;8.27;7.27;;;-40.00;99.90;;;;;;5139716;27;20474;-73
2022/06/21 03:59:11;;;;;;;9.70;7.03;;;-40.00;99.90;;;;;;5139547;27;20457;-67
2022/06/21 04:01:43;;;;;;;7.33;6.73;;;-40.00;99.90;;;;;;5139240;27;20209;-64
2022/06/21 04:04:23;;;;;;;9.27;6.90;;;-40.00;99.90;;;;;;5139474;27;20469;-75
2022/06/21 04:07:03;;;;;;;8.27;6.80;;;-40.00;99.90;;;;;;5139255;27;20174;-68
2022/06/21 04:09:45;;;;;;;10.17;6.57;;;-40.00;99.90;;;;;;5138520;27;20465;-72
2022/06/21 04:12:21;;;;;;;8.27;7.47;;;-40.00;99.90;;;;;;5139477;27;20200;-73
2022/06/21 04:15:02;;;;;;;7.83;6.30;;;-40.00;99.90;;;;;;5139324;27;20185;-75
2022/06/21 04:17:35;;;;;;;8.67;7.53;;;-40.00;99.90;;;;;;5139123;27;20226;-75
2022/06/21 04:20:31;;;;;;;8.90;7.60;;;-40.00;99.90;;;;;;5138180;27;20173;-75
2022/06/21 04:23:19;;;;;;;12.30;7.67;;;-40.00;99.90;;;;;;5139037;27;20292;-75
2022/06/21 04:26:07;;;;;;;9.57;7.60;;;-40.00;99.90;;;;;;5139102;27;20165;-73
2022/06/21 04:28:59;;;;;;;10.07;7.33;;;-40.00;99.90;;;;;;5138953;27;20168;-74
2022/06/21 04:31:31;;;;;;;7.87;7.10;;;-40.00;99.90;;;;;;5137975;27;20218;-74
2022/06/21 04:33:58;;;;;;;14.10;8.13;;;-40.00;99.90;;;;;;5138834;27;20170;-74
2022/06/21 04:36:38;;;;;;;8.33;5.77;;;-40.00;99.90;;;;;;5138382;27;20584;-74
2022/06/21 04:39:26;;;;;;;11.60;6.93;;;-40.00;99.90;;;;;;5138746;27;20195;-74
2022/06/21 04:42:02;;;;;;;10.47;7.43;;;-40.00;99.90;;;;;;5138766;27;20193;-75
2022/06/21 04:44:39;;;;;;;8.70;7.13;;;-40.00;99.90;;;;;;5138543;27;20172;-73
2022/06/21 04:47:20;;;;;;;13.10;8.07;;;-40.00;99.90;;;;;;5138704;27;20161;-74
2022/06/21 04:50:22;;;;;;;13.40;6.70;;;-40.00;99.90;;;;;;5138227;27;20460;-72
2022/06/21 04:53:11;;;;;;;11.80;7.70;;;-40.00;99.90;;;;;;5138581;27;20583;-74
2022/06/21 04:56:16;;;;;;;6.90;6.27;;;-40.00;99.90;;;;;;5137368;27;20173;-75
2022/06/21 04:58:44;;;;;;;13.57;6.77;;;-40.00;99.90;;;;;;5138286;27;20246;-68
2022/06/21 05:03:57;;;;;;;9.40;7.43;;;-40.00;99.90;;;;;;5138376;27;20199;-75
2022/06/21 05:06:24;;;;;;;8.73;6.10;;;-40.00;99.90;;;;;;5138165;27;20181;-72
2022/06/21 05:08:50;;;;;;;9.13;6.50;;;-40.00;99.90;;;;;;5138236;27;20234;-75
2022/06/21 05:11:17;;;;;;;7.03;6.37;;;-40.00;99.90;;;;;;5138276;27;20169;-72
2022/06/21 05:13:49;;;;;;;13.17;6.97;;;-40.00;99.90;;;;;;5138150;27;20252;-74
2022/06/21 05:16:20;;;;;;;12.83;7.50;;;-40.00;99.90;;;;;;5138163;27;20181;-73
2022/06/21 05:18:54;;;;;;;9.23;5.93;;;-40.00;99.90;;;;;;5137632;27;20173;-73
2022/06/21 05:21:37;;;;;;;8.40;7.30;;;-40.00;99.90;;;;;;5136913;27;20587;-73
2022/06/21 05:24:04;;;;;;;11.53;7.07;;;-40.00;99.90;;;;;;5138066;27;20216;-68
2022/06/21 05:26:59;;;;;;;8.00;7.13;;;-40.00;99.90;;;;;;5137894;27;20166;-70
2022/06/21 05:29:34;;;;;;;7.57;6.67;;;-40.00;99.90;;;;;;5137717;27;20173;-71
2022/06/21 05:32:03;;;;;;;7.77;6.87;;;-40.00;99.90;;;;;;5137914;27;20168;-67
2022/06/21 05:34:43;;;;;;;11.07;7.80;;;-40.00;99.90;;;;;;5137206;27;20224;-70
2022/06/21 05:37:27;;;;;;;14.17;6.73;;;-40.00;99.90;;;;;;5137439;27;20193;-69
2022/06/21 05:39:54;;;;;;;10.60;6.77;;;-40.00;99.90;;;;;;5137587;27;20169;-73
2022/06/21 05:42:23;;;;;;;10.10;6.10;;;-40.00;99.90;;;;;;5137595;27;20193;-69
2022/06/21 05:45:01;;;;;;;8.00;6.93;;;-40.00;99.90;;;;;;5137420;27;20170;-69
2022/06/21 05:47:29;;;;;;;6.43;5.83;;;-40.00;99.90;;;;;;5137070;27;20168;-72
2022/06/21 05:49:58;;;;;;;8.47;6.13;;;-40.00;99.90;;;;;;5137391;27;20169;-69
2022/06/21 05:52:34;;;;;;;9.03;7.70;;;-40.00;99.90;;;;;;5137392;27;20252;-75
2022/06/21 05:55:28;;;;;;;7.27;5.50;;;-40.00;99.90;;;;;;5137146;27;20478;-70
2022/06/21 05:58:00;;;;;;;8.63;6.80;;;-40.00;99.90;;;;;;5115797;28;20278;-70
2022/06/21 06:00:38;;;;;;;8.50;6.90;;;-40.00;99.90;;;;;;5116658;28;20173;-67
2022/06/21 06:03:21;;;;;;;7.67;6.97;;;-40.00;99.90;;;;;;5116400;28;20243;-69
2022/06/21 06:05:49;;;;;;;8.60;6.80;;;-40.00;99.90;;;;;;5124399;27;20177;-68
2022/06/21 06:08:32;;;;;;;11.63;6.43;;;-40.00;99.90;;;;;;5135950;27;20169;-73
2022/06/21 06:11:01;;;;;;;8.90;5.93;;;-40.00;99.90;;;;;;5132707;27;20254;-68
2022/06/21 06:13:33;;;;;;;8.00;6.10;;;-40.00;99.90;;;;;;5137037;27;20506;-70
2022/06/21 06:16:27;;;;;;;10.57;7.03;;;-40.00;99.90;;;;;;5135921;27;20568;-69
2022/06/21 06:19:04;;;;;;;8.23;5.77;;;-40.00;99.90;;;;;;5136691;27;20192;-68
2022/06/21 06:21:43;;;;;;;7.93;5.37;;;-40.00;99.90;;;;;;5135868;27;20187;-71
2022/06/21 06:24:21;;;;;;;7.40;6.70;;;-40.00;99.90;;;;;;5136024;27;20157;-67
2022/06/21 06:26:50;;;;;;;8.47;5.63;;;-40.00;99.90;;;;;;5135418;27;20165;-73
2022/06/21 06:29:25;;;;;;;5.57;5.07;;;-40.00;99.90;;;;;;5135978;27;20248;-70
2022/06/21 06:32:17;;;;;;;14.83;6.30;;;-40.00;99.90;;;;;;5136165;27;20564;-69
2022/06/21 06:34:48;;;;;;;7.17;6.00;;;-40.00;99.90;;;;;;5136776;27;20184;-69
2022/06/21 06:37:25;;;;;;;5.53;5.03;;;-40.00;99.90;;;;;;5136469;27;20480;-70
2022/06/21 06:39:51;;;;;;;8.07;5.40;;;-40.00;99.90;;;;;;5136119;27;20175;-70
2022/06/21 06:42:33;;;;;;;7.13;5.73;;;-40.00;99.80;;;;;;5136737;27;20196;-69
2022/06/21 06:45:33;;;;;;;9.53;6.27;;;-40.00;99.40;;;;;;5136827;27;20206;-70
2022/06/21 06:48:04;;;;;;;6.23;4.77;;;-40.00;99.90;;;;;;5113840;27;20216;-69
2022/06/21 06:50:36;;;;;;;6.97;6.30;;;-40.00;99.90;;;;;;5136810;27;20173;-70
2022/06/21 06:53:11;;;;;;;8.70;6.13;;;-40.00;99.00;;;;;;5136865;27;20199;-71
2022/06/21 06:55:42;;;;;;;6.43;5.43;;;-40.00;99.60;;;;;;5136737;27;20176;-68
2022/06/21 06:58:28;;;;;;;6.10;4.77;;;-40.00;98.10;;;;;;5136640;27;20177;-67
2022/06/21 07:01:16;;;;;;;8.37;6.83;;;-40.00;98.50;;;;;;5136189;27;20180;-67
2022/06/21 07:04:04;;;;;;;5.40;4.57;;;-40.00;98.50;;;;;;5136165;28;20186;-67
2022/06/21 07:06:48;;;;;;;6.23;5.63;;;-40.00;97.50;;;;;;5135895;28;20193;-71
2022/06/21 07:09:29;;;;;;;8.43;4.77;;;-40.00;95.30;;;;;;5136626;27;20201;-66
2022/06/21 07:12:12;;;;;;;7.67;5.33;;;-40.00;95.80;;;;;;5135290;28;20165;-69
2022/06/21 07:14:38;;;;;;;7.50;5.70;;;-40.00;96.70;;;;;;5136221;27;20162;-68
2022/06/21 07:17:20;;;;;;;9.70;5.07;;;-40.00;97.10;;;;;;5136279;27;20210;-67
2022/06/21 07:19:45;;;;;;;6.57;5.93;;;-40.00;95.90;;;;;;5135350;27;20260;-68
2022/06/21 07:22:20;;;;;;;8.60;4.93;;;-40.00;95.20;;;;;;5135182;28;20276;-69
2022/06/21 07:25:11;;;;;;;5.27;4.73;;;-40.00;94.00;;;;;;5136414;27;20249;-68
2022/06/21 07:27:41;;;;;;;6.40;5.50;;;-40.00;94.50;;;;;;5136193;27;20161;-69
2022/06/21 07:30:13;;;;;;;10.83;5.93;;;-40.00;94.30;;;;;;5136214;27;20165;-68
2022/06/21 07:32:57;;;;;;;8.60;5.03;;;-40.00;95.70;;;;;;5136176;27;20173;-70
2022/06/21 07:35:35;;;;;;;7.10;4.77;;;-40.00;95.10;;;;;;5136221;27;20245;-68
2022/06/21 07:38:31;;;;;;;10.93;6.13;;;-40.00;94.30;;;;;;5135975;27;20195;-68
2022/06/21 07:41:02;;;;;;;6.37;5.27;;;-40.00;94.70;;;;;;5136506;27;20165;-68
2022/06/21 07:43:48;;;;;;;9.47;5.37;;;-40.00;95.30;;;;;;5135973;27;20236;-69
2022/06/21 07:46:28;;;;;;;26.83;7.73;;;-40.00;93.50;;;;;;5139824;27;20210;-70
2022/06/21 07:49:22;;;;;;;5.53;5.00;;;-40.00;92.80;;;;;;5139607;27;20222;-70
2022/06/21 07:51:54;;;;;;;9.13;5.47;;;-40.00;94.00;;;;;;5139747;27;20209;-69
2022/06/21 07:54:43;;;;;;;10.40;5.53;;;-40.00;93.30;;;;;;5139774;27;20603;-69
2022/06/21 07:57:33;;;;;;;5.57;4.77;;;-40.00;92.70;;;;;;5132985;27;20226;-68
2022/06/21 08:00:16;;;;;;;7.63;5.47;;;-40.00;93.20;;;;;;5139457;27;20170;-69
2022/06/21 08:08:45;;;;;;;7.60;6.27;;;-40.00;91.80;;;;;;5139366;27;20180;-72
2022/06/21 08:11:28;;;;;;;6.07;5.57;;;-40.00;91.90;;;;;;5139392;27;20194;-68
2022/06/21 08:13:54;;;;;;;8.83;6.20;;;-40.00;91.60;;;;;;5139040;27;20252;-72
2022/06/21 08:16:27;;;;;;;6.40;5.67;;;-40.00;90.30;;;;;;5139332;27;20615;-71
2022/06/21 08:19:01;;;;;;;6.90;5.57;;;-40.00;91.10;;;;;;5138123;27;20199;-70
2022/06/21 08:21:46;;;;;;;9.97;4.90;;;-40.00;90.90;;;;;;5139302;27;20193;-72
2022/06/21 08:24:23;;;;;;;5.67;5.17;;;-40.00;90.50;;;;;;5139276;27;20158;-72
2022/06/21 08:27:04;;;;;;;7.97;6.43;;;-40.00;90.40;;;;;;5138968;27;20208;-72
2022/06/21 08:29:39;;;;;;;11.57;6.00;;;-40.00;91.70;;;;;;5138961;27;20166;-72
2022/06/21 08:32:09;;;;;;;8.33;4.93;;;-40.00;90.70;;;;;;5139128;27;20169;-73
2022/06/21 08:34:44;;;;;;;7.43;5.37;;;-40.00;90.10;;;;;;5138814;27;20700;-71
2022/06/21 08:37:12;;;;;;;10.50;6.13;;;-40.00;90.20;;;;;;5138861;27;20195;-71
2022/06/21 08:39:47;;;;;;;11.13;5.70;;;-40.00;90.70;;;;;;5138968;27;20231;-69
2022/06/21 08:42:37;;;;;;;8.20;4.87;;;-40.00;90.60;;;;;;5138460;27;20189;-72
2022/06/21 08:45:47;;;;;;;8.43;4.83;;;-40.00;90.40;;;;;;5138711;27;20231;-70
2022/06/21 08:48:37;;;;;;;12.20;5.67;;;-40.00;90.40;;;;;;5105175;27;20173;-69
2022/06/21 08:51:31;;;;;;;5.33;4.67;;;-40.00;88.30;;;;;;5138666;27;20165;-69
2022/06/21 08:54:25;;;;;;;10.60;5.20;;;-40.00;89.50;;;;;;5138388;27;20157;-71
2022/06/21 08:57:08;;;;;;;9.77;5.73;;;-40.00;87.20;;;;;;5138225;27;20169;-70
2022/06/21 08:59:58;;;;;;;7.63;4.47;;;-40.00;86.80;;;;;;5138410;27;20270;-73
2022/06/21 09:02:23;;;;;;;9.33;5.87;;;-40.00;88.90;;;;;;5138307;27;20639;-68
2022/06/21 09:05:24;;;;;;;10.57;5.93;;;-40.00;89.80;;;;;;5138152;27;20166;-74
2022/06/21 09:08:13;;;;;;;7.87;5.53;;;-40.00;85.90;;;;;;5124626;27;20458;-74
2022/06/21 09:10:53;;;;;;;7.93;4.60;;;-40.00;87.30;;;;;;5138059;27;20170;-72
2022/06/21 09:13:22;;;;;;;4.90;4.43;;;-40.00;85.00;;;;;;5138225;27;20569;-71
2022/06/21 09:15:50;;;;;;;6.30;5.23;;;-40.00;85.70;;;;;;5137885;27;20170;-69
2022/06/21 09:18:22;;;;;;;7.20;5.20;;;-40.00;86.00;;;;;;5138111;27;20633;-68
2022/06/21 09:21:12;;;;;;;12.63;5.57;;;-40.00;87.10;;;;;;5136896;27;20176;-69
2022/06/21 09:24:11;;;;;;;6.13;4.73;;;-40.00;84.20;;;;;;5137847;27;20236;-72
2022/06/21 09:26:54;;;;;;;10.30;5.50;;;-40.00;84.00;;;;;;5136545;27;20224;-69
2022/06/21 09:29:27;;;;;;;13.63;5.10;;;-40.00;80.90;;;;;;5137786;27;20165;-71
2022/06/21 09:32:13;;;;;;;8.57;4.77;;;-40.00;81.30;;;;;;5137880;27;20189;-68
2022/06/21 09:34:50;;;;;;;6.57;4.57;;;-40.00;80.30;;;;;;5137619;27;20468;-68
2022/06/21 09:37:19;;;;;;;5.90;4.57;;;-40.00;81.30;;;;;;5136553;27;20491;-68
2022/06/21 09:39:53;;;;;;;5.83;3.33;;;-40.00;79.40;;;;;;5137457;27;20278;-68
2022/06/21 09:42:34;;;;;;;7.97;5.23;;;20.40;99.90;;;;;;5136701;27;20192;-70
2022/06/21 09:45:19;;;;;;;8.50;5.27;;;20.50;99.90;;;;;;5137388;27;20161;-70
2022/06/21 09:47:57;;;;;;;6.63;3.10;;;20.50;99.90;;;;;;5137524;27;20189;-72
2022/06/21 09:51:07;;;;;;;4.83;3.53;;;20.40;99.90;;;;;;5136455;27;20175;-74
2022/06/21 09:53:51;;;;;;;4.50;2.97;;;20.50;99.90;;;;;;5113659;27;20197;-71
2022/06/21 09:56:43;;;;;;;8.73;3.83;;;20.30;99.90;;;;;;5137339;27;20197;-72
2022/06/21 09:59:20;;;;;;;4.47;3.80;;;20.30;99.90;;;;;;5137375;27;20172;-74
2022/06/21 10:02:02;;;;;;;7.00;4.40;;;20.30;99.90;;;;;;5137077;27;20224;-69
2022/06/21 10:04:28;;;;;;;4.97;4.43;;;20.30;99.90;;;;;;5137165;27;20161;-72
2022/06/21 10:07:29;;;;;;;6.47;4.60;;;20.20;99.90;;;;;;5136569;27;20172;-69
2022/06/21 10:10:07;;;;;;;9.40;4.90;;;20.20;99.90;;;;;;5114234;27;20184;-74
2022/06/21 10:13:17;;;;;;;6.27;4.07;;;20.30;99.90;;;;;;5137266;27;20399;-73
2022/06/21 10:16:20;;;;;;;8.90;5.90;;;20.20;99.90;;;;;;5137184;27;20172;-74
2022/06/21 10:19:15;;;;;;;7.30;4.37;;;20.20;99.90;;;;;;5137076;27;20169;-74
2022/06/21 10:22:19;;;;;;;8.27;4.60;;;20.10;99.90;;;;;;5137065;27;20173;-72
2022/06/21 10:24:51;;;;;;;11.30;4.80;;;20.00;99.90;;;;;;5136722;27;20195;-75
2022/06/21 10:27:48;;;;;;;7.37;4.73;;;20.00;99.90;;;;;;5136781;27;20218;-73
2022/06/21 10:30:48;;;;;;;12.77;5.47;;;19.90;99.90;;;;;;5136962;27;20170;-68
2022/06/21 10:33:54;;;;;;;7.40;4.37;;;19.80;99.90;;;;;;5136865;27;20165;-71
2022/06/21 10:36:57;;;;;;;7.60;4.73;;;19.70;99.90;;;;;;5136675;27;20184;-69
2022/06/21 10:39:42;;;;;;;7.50;6.67;;;19.60;99.90;;;;;;5136483;27;20252;-67
2022/06/21 10:42:46;;;;;;;9.23;4.57;;;19.60;99.90;;;;;;5135187;28;20287;-67
2022/06/21 10:45:40;;;;;;;8.30;4.30;;;19.60;99.90;;;;;;5136696;27;20153;-69
2022/06/21 10:48:15;;;;;;;8.60;3.90;;;19.60;99.90;;;;;;5136702;27;20227;-68
2022/06/21 10:51:08;;;;;;;8.53;4.97;;;19.60;99.90;;;;;;5135636;27;20177;-68
2022/06/21 10:54:11;;;;;;;5.13;3.83;;;19.60;99.90;;;;;;5136488;27;20211;-68
2022/06/21 10:57:13;;;;;;;5.70;4.67;;;19.70;99.90;;;;;;5136498;27;20169;-70
2022/06/21 11:02:56;;;;;;;6.40;4.10;;;19.70;99.90;;;;;;5136486;28;20204;-72
2022/06/21 11:06:03;;;;;;;4.87;3.80;;;19.70;99.90;;;;;;5136481;27;20248;-68
2022/06/21 11:09:16;;;;;;;3.87;3.57;;;19.60;99.90;;;;;;5136285;27;20506;-72
2022/06/21 11:11:55;;;;;;;5.57;4.60;;;19.70;99.90;;;;;;5076447;28;20170;-68
2022/06/21 11:14:34;;;;;;;14.70;4.83;;;19.70;99.90;;;;;;5131484;27;20178;-68
2022/06/21 11:17:42;;;;;;;6.33;5.30;;;19.70;99.90;;;;;;5135108;27;20596;-69
2022/06/21 11:20:12;;;;;;;6.83;4.90;;;19.70;99.90;;;;;;5140494;27;20161;-75
2022/06/21 11:22:59;;;;;;;7.73;4.90;;;19.70;99.90;;;;;;5139949;27;20182;-71
2022/06/21 11:25:47;;;;;;;9.63;5.27;;;19.80;99.90;;;;;;5140324;27;20269;-75
2022/06/21 11:28:55;;;;;;;6.17;4.67;;;19.90;99.90;;;;;;5140063;27;20469;-69
2022/06/21 11:31:34;;;;;;;8.03;4.50;;;19.90;99.90;;;;;;5134723;27;20177;-74
2022/06/21 11:34:27;;;;;;;4.63;4.20;;;20.00;99.90;;;;;;5140107;27;20516;-74
2022/06/21 11:37:08;;;;;;;13.07;4.00;;;20.10;99.90;;;;;;5139568;27;20185;-73
2022/06/21 11:39:45;;;;;;;8.77;4.53;;;20.20;99.90;;;;;;5139974;27;20172;-75
2022/06/21 11:42:38;;;;;;;5.17;3.83;;;20.40;99.90;;;;;;5139861;27;20192;-74
2022/06/21 11:45:24;;;;;;;9.83;4.63;;;20.30;99.90;;;;;;5139919;27;20166;-69
2022/06/21 11:48:09;;;;;;;5.23;3.93;;;20.10;99.90;;;;;;5138468;27;20169;-72
2022/06/21 11:50:53;;;;;;;8.77;4.17;;;20.10;99.90;;;;;;5139610;27;20214;-70
2022/06/21 11:53:37;;;;;;;8.43;4.40;;;20.00;99.90;;;;;;5139547;27;20188;-73
2022/06/21 11:56:06;;;;;;;7.93;3.90;;;20.00;99.90;;;;;;5139760;27;20180;-74
2022/06/21 11:59:01;;;;;;;10.37;4.43;;;20.00;99.90;;;;;;5138560;27;20205;-74
2022/06/21 12:01:49;;;;;;;5.27;4.23;;;20.00;99.90;;;;;;5139706;27;20599;-72
2022/06/21 12:04:41;;;;;;;4.90;4.50;;;20.00;99.90;;;;;;5139216;27;20161;-73
2022/06/21 12:07:15;;;;;;;6.37;4.30;;;19.60;99.90;;;;;;5139112;27;20196;-71
2022/06/21 12:09:57;;;;;;;6.93;4.37;;;19.90;99.90;;;;;;5138299;27;20233;-71
2022/06/21 12:12:44;;;;;;;12.60;5.60;;;20.00;99.90;;;;;;5139404;27;20555;-69
2022/06/21 12:15:21;;;;;;;14.27;4.87;;;19.90;99.90;;;;;;5139349;27;20166;-71
2022/06/21 12:17:51;;;;;;;6.40;4.80;;;19.90;99.90;;;;;;5139098;27;20161;-74
2022/06/21 12:20:41;;;;;;;7.57;4.20;;;20.00;99.90;;;;;;5138979;27;20177;-69
2022/06/21 12:23:10;;;;;;;8.87;4.67;;;20.10;99.90;;;;;;5139016;27;20196;-72
2022/06/21 12:25:36;;;;;;;7.23;4.80;;;20.10;99.90;;;;;;5139101;27;20161;-69
2022/06/21 12:28:04;;;;;;;5.67;5.13;;;20.00;99.90;;;;;;5138985;27;20174;-72
2022/06/21 12:30:30;;;;;;;9.57;5.07;;;20.00;99.90;;;;;;5138489;27;20166;-70
2022/06/21 12:33:03;;;;;;;6.70;4.67;;;20.00;99.90;;;;;;5138896;27;20169;-74
2022/06/21 12:35:55;;;;;;;6.07;4.43;;;19.90;99.90;;;;;;5138606;27;20180;-73
2022/06/21 12:38:24;;;;;;;7.70;5.17;;;19.90;99.90;;;;;;5133678;27;20201;-69
2022/06/21 12:41:08;;;;;;;5.43;4.60;;;19.90;99.90;;;;;;5138141;27;20282;-70
2022/06/21 12:44:21;;;;;;;7.33;4.67;;;20.00;99.90;;;;;;5138604;27;20482;-72
2022/06/21 12:46:53;;;;;;;8.13;5.03;;;19.90;99.90;;;;;;5119841;27;20185;-69
2022/06/21 12:49:41;;;;;;;6.97;4.87;;;19.90;99.90;;;;;;5138319;27;20468;-73
2022/06/21 12:52:44;;;;;;;6.20;4.60;;;20.00;99.90;;;;;;5138626;27;20498;-74
2022/06/21 12:56:07;;;;;;;8.23;4.83;;;20.00;99.90;;;;;;5095404;28;20174;-70
2022/06/21 12:59:03;;;;;;;5.70;4.70;;;20.00;99.90;;;;;;5095527;28;20185;-73
2022/06/21 13:01:40;;;;;;;6.27;4.63;;;20.10;99.90;;;;;;5095547;28;20179;-72
2022/06/21 13:04:20;;;;;;;7.50;5.43;;;20.10;99.90;;;;;;5127246;27;20322;-73
2022/06/21 13:07:03;;;;;;;10.20;5.17;;;20.20;99.90;;;;;;5137235;27;20203;-75
2022/06/21 13:09:50;;;;;;;7.33;4.57;;;20.20;99.90;;;;;;5138368;27;20169;-74
2022/06/21 13:12:28;;;;;;;10.67;6.00;;;20.20;99.90;;;;;;5137163;27;20169;-74
2022/06/21 13:15:15;;;;;;;9.93;5.17;;;20.20;99.90;;;;;;5138153;27;20226;-75
2022/06/21 13:18:20;;;;;;;5.67;5.03;;;20.20;99.90;;;;;;5137970;27;20161;-75
2022/06/21 13:21:20;;;;;;;6.80;4.57;;;20.10;99.90;;;;;;5138194;27;20170;-74
2022/06/21 13:24:16;;;;;;;6.43;4.53;;;20.10;99.90;;;;;;5137801;27;20199;-73
2022/06/21 13:27:09;;;;;;;9.90;5.67;;;20.10;99.90;;;;;;5137927;27;20214;-74
2022/06/21 13:29:50;;;;;;;7.03;4.37;;;20.00;99.90;;;;;;5137951;27;20218;-74
2022/06/21 13:32:28;;;;;;;12.20;5.77;;;20.10;99.90;;;;;;5136337;27;20169;-74
2022/06/21 13:34:56;;;;;;;8.40;5.20;;;20.10;99.90;;;;;;5136518;27;20185;-75
2022/06/21 13:37:43;;;;;;;11.60;5.17;;;20.10;99.90;;;;;;5137483;27;20185;-74
2022/06/21 13:40:25;;;;;;;5.63;4.40;;;20.10;99.90;;;;;;5137593;27;20173;-75
2022/06/21 13:42:56;;;;;;;10.60;4.43;;;20.00;99.90;;;;;;5136781;27;20530;-71
2022/06/21 13:45:39;;;;;;;7.23;4.30;;;19.90;99.90;;;;;;5137579;27;20200;-74
2022/06/21 13:48:42;;;;;;;6.67;4.37;;;19.90;99.90;;;;;;5137573;27;20162;-70
2022/06/21 13:51:13;;;;;;;5.07;4.57;;;19.90;99.90;;;;;;5137355;27;20168;-70
2022/06/21 13:54:04;;;;;;;5.47;4.97;;;19.90;99.90;;;;;;5137513;27;20195;-75
2022/06/21 13:56:51;;;;;;;8.33;4.97;;;19.90;99.90;;;;;;5137347;27;20163;-75